createdAt,value
2023-05-18T00:01:49.420Z,61.08
2023-05-18T00:03:55.061Z,60.95
2023-05-18T00:06:04.195Z,61.09
2023-05-18T00:08:07.983Z,60.79
2023-05-18T00:10:13.235Z,60.99
2023-05-18T00:12:15.933Z,60.86
2023-05-18T00:14:18.805Z,61.35
2023-05-18T00:16:21.731Z,60.56
2023-05-18T00:18:26.532Z,61.15
2023-05-18T00:20:29.633Z,60.70
2023-05-18T00:22:35.097Z,60.97
2023-05-18T00:24:37.682Z,60.81
2023-05-18T00:26:42.557Z,60.76
2023-05-18T00:28:45.172Z,60.05
2023-05-18T00:30:47.900Z,60.21
2023-05-18T00:32:50.741Z,60.41
2023-05-18T00:34:53.456Z,59.75
2023-05-18T00:36:56.082Z,59.66
2023-05-18T00:38:58.682Z,59.13
2023-05-18T00:41:01.334Z,59.84
2023-05-18T00:43:05.772Z,59.69
2023-05-18T00:45:09.515Z,59.96
2023-05-18T00:47:12.113Z,59.64
2023-05-18T00:49:15.152Z,60.09
2023-05-18T00:51:18.209Z,60.42
2023-05-18T00:53:20.949Z,59.86
2023-05-18T00:55:23.806Z,60.26
2023-05-18T00:57:26.833Z,61.00
2023-05-18T00:59:32.764Z,61.33
2023-05-18T01:01:36.202Z,60.94
2023-05-18T01:03:39.514Z,61.25
2023-05-18T01:05:42.361Z,61.04
2023-05-18T01:07:45.126Z,61.30
2023-05-18T01:09:47.792Z,61.38
2023-05-18T01:11:58.276Z,61.26
2023-05-18T01:14:09.481Z,61.53
2023-05-18T01:16:19.523Z,61.85
2023-05-18T01:18:29.086Z,61.45
2023-05-18T01:20:37.866Z,61.86
2023-05-18T01:22:51.742Z,61.22
2023-05-18T01:25:03.061Z,61.04
2023-05-18T01:27:09.029Z,60.99
2023-05-18T01:29:14.886Z,60.43
2023-05-18T01:31:17.774Z,60.49
2023-05-18T01:33:20.790Z,60.36
2023-05-18T01:35:23.525Z,60.20
2023-05-18T01:37:26.151Z,59.92
2023-05-18T01:39:28.802Z,60.16
2023-05-18T01:41:36.378Z,60.62
2023-05-18T01:43:53.903Z,60.59
2023-05-18T01:46:02.909Z,61.06
2023-05-18T01:48:08.372Z,60.05
2023-05-18T01:50:14.886Z,60.85
2023-05-18T01:52:20.392Z,60.99
2023-05-18T01:54:25.871Z,61.34
2023-05-18T01:56:29.017Z,61.61
2023-05-18T01:58:31.830Z,61.56
2023-05-18T02:00:36.573Z,61.10
2023-05-18T02:02:39.306Z,61.31
2023-05-18T02:04:41.973Z,61.50
2023-05-18T02:06:44.600Z,61.69
2023-05-18T02:08:47.219Z,61.69
2023-05-18T02:10:49.860Z,61.65
2023-05-18T02:12:53.917Z,61.39
2023-05-18T02:14:58.333Z,60.49
2023-05-18T02:17:02.287Z,60.86
2023-05-18T02:19:04.927Z,61.01
2023-05-18T02:21:09.410Z,61.19
2023-05-18T02:23:11.998Z,61.60
2023-05-18T02:25:14.637Z,61.56
2023-05-18T02:27:17.253Z,61.66
2023-05-18T02:29:19.874Z,61.78
2023-05-18T02:31:22.519Z,61.77
2023-05-18T02:33:26.658Z,61.96
2023-05-18T02:35:29.804Z,61.76
2023-05-18T02:37:34.376Z,61.72
2023-05-18T02:39:36.947Z,61.52
2023-05-18T02:41:39.631Z,61.68
2023-05-18T02:43:42.231Z,61.84
2023-05-18T02:45:44.866Z,61.22
2023-05-18T02:47:47.997Z,61.44
2023-05-18T02:49:52.609Z,61.53
2023-05-18T02:51:55.234Z,61.28
2023-05-18T02:53:57.950Z,61.23
2023-05-18T02:56:03.511Z,60.72
2023-05-18T02:58:06.208Z,60.92
2023-05-18T03:00:11.608Z,59.52
2023-05-18T03:02:16.514Z,60.51
2023-05-18T03:04:19.964Z,60.75
2023-05-18T03:06:26.719Z,61.01
2023-05-18T03:08:31.473Z,61.75
2023-05-18T03:10:34.078Z,61.58
2023-05-18T03:12:36.686Z,61.86
2023-05-18T03:14:39.306Z,61.89
2023-05-18T03:16:41.922Z,62.07
2023-05-18T03:18:44.556Z,61.52
2023-05-18T03:20:47.258Z,62.06
2023-05-18T03:22:51.188Z,61.54
2023-05-18T03:24:55.462Z,62.38
2023-05-18T03:26:58.170Z,61.55
2023-05-18T03:29:01.210Z,62.03
2023-05-18T03:31:03.958Z,61.84
2023-05-18T03:33:06.636Z,62.29
2023-05-18T03:35:12.336Z,62.55
2023-05-18T03:37:15.936Z,62.36
2023-05-18T03:39:19.910Z,62.16
2023-05-18T03:41:22.976Z,62.72
2023-05-18T03:43:26.144Z,62.50
2023-05-18T03:45:29.044Z,62.66
2023-05-18T03:47:32.262Z,62.69
2023-05-18T03:49:35.841Z,62.46
2023-05-18T03:51:38.424Z,62.85
2023-05-18T03:53:42.194Z,62.50
2023-05-18T03:55:46.243Z,62.06
2023-05-18T03:57:48.960Z,62.00
2023-05-18T03:59:51.762Z,61.74
2023-05-18T04:01:54.764Z,61.97
2023-05-18T04:03:57.926Z,62.06
2023-05-18T04:06:00.625Z,62.09
2023-05-18T04:08:03.232Z,62.07
2023-05-18T04:10:07.404Z,62.06
2023-05-18T04:12:11.565Z,61.66
2023-05-18T04:14:15.125Z,61.67
2023-05-18T04:16:18.211Z,61.70
2023-05-18T04:18:21.018Z,61.82
2023-05-18T04:20:23.589Z,62.40
2023-05-18T04:22:29.781Z,62.31
2023-05-18T04:24:32.777Z,62.16
2023-05-18T04:26:38.456Z,62.35
2023-05-18T04:28:43.196Z,62.63
2023-05-18T04:30:46.099Z,62.62
2023-05-18T04:32:49.110Z,62.47
2023-05-18T04:34:51.742Z,63.28
2023-05-18T04:36:55.892Z,63.83
2023-05-18T04:38:59.521Z,63.93
2023-05-18T04:41:05.334Z,64.33
2023-05-18T04:43:08.376Z,64.21
2023-05-18T04:45:16.441Z,64.34
2023-05-18T04:47:19.033Z,64.55
2023-05-18T04:49:22.956Z,64.70
2023-05-18T04:51:25.845Z,65.19
2023-05-18T04:53:28.443Z,65.25
2023-05-18T04:55:31.431Z,65.29
2023-05-18T04:57:34.227Z,65.79
2023-05-18T04:59:37.281Z,65.59
2023-05-18T05:01:41.324Z,65.93
2023-05-18T05:03:44.735Z,66.14
2023-05-18T05:05:47.399Z,66.28
2023-05-18T05:07:50.614Z,66.32
2023-05-18T05:09:53.226Z,66.51
2023-05-18T05:11:56.463Z,66.37
2023-05-18T05:13:59.202Z,66.43
2023-05-18T05:16:01.938Z,66.71
2023-05-18T05:18:06.197Z,67.17
2023-05-18T05:20:09.934Z,66.63
2023-05-18T05:22:12.578Z,67.00
2023-05-18T05:24:17.504Z,67.04
2023-05-18T05:26:21.382Z,67.17
2023-05-18T05:28:23.974Z,66.89
2023-05-18T05:30:26.600Z,66.82
2023-05-18T05:32:29.234Z,66.83
2023-05-18T05:34:33.230Z,66.67
2023-05-18T05:36:35.825Z,66.87
2023-05-18T05:38:38.441Z,66.82
2023-05-18T05:40:41.283Z,67.20
2023-05-18T05:42:44.307Z,66.98
2023-05-18T05:44:50.000Z,66.95
2023-05-18T05:46:52.613Z,67.15
2023-05-18T05:48:55.966Z,67.28
2023-05-18T05:50:59.898Z,66.23
2023-05-18T05:53:02.597Z,66.59
2023-05-18T05:55:06.153Z,66.69
2023-05-18T05:57:08.779Z,66.88
2023-05-18T05:59:11.624Z,66.91
2023-05-18T06:01:14.229Z,66.92
2023-05-18T06:03:16.861Z,66.94
2023-05-18T06:05:19.474Z,66.85
2023-05-18T06:07:23.414Z,66.50
2023-05-18T06:09:26.347Z,66.83
2023-05-18T06:11:28.970Z,66.51
2023-05-18T06:13:32.016Z,66.77
2023-05-18T06:15:34.681Z,66.31
2023-05-18T06:17:38.588Z,66.69
2023-05-18T06:19:41.238Z,66.36
2023-05-18T06:21:43.974Z,66.61
2023-05-18T06:23:47.959Z,66.35
2023-05-18T06:25:50.678Z,66.47
2023-05-18T06:27:53.284Z,66.58
2023-05-18T06:29:55.927Z,66.44
2023-05-18T06:31:58.769Z,66.48
2023-05-18T06:34:01.794Z,66.15
2023-05-18T06:36:04.914Z,66.13
2023-05-18T06:38:07.631Z,66.09
2023-05-18T06:40:12.018Z,66.36
2023-05-18T06:42:14.639Z,66.33
2023-05-18T06:44:17.209Z,66.14
2023-05-18T06:46:21.071Z,65.77
2023-05-18T06:48:27.275Z,66.40
2023-05-18T06:50:29.913Z,66.14
2023-05-18T06:52:32.612Z,65.98
2023-05-18T06:54:35.224Z,66.59
2023-05-18T06:56:39.165Z,66.46
2023-05-18T06:58:42.951Z,66.26
2023-05-18T07:00:45.606Z,66.19
2023-05-18T07:02:48.317Z,66.44
2023-05-18T07:04:51.178Z,66.67
2023-05-18T07:06:55.762Z,66.27
2023-05-18T07:08:58.423Z,66.03
2023-05-18T07:11:02.461Z,66.05
2023-05-18T07:13:06.509Z,66.14
2023-05-18T07:15:11.435Z,66.22
2023-05-18T07:17:14.029Z,65.25
2023-05-18T07:19:16.602Z,65.47
2023-05-18T07:21:19.209Z,65.81
2023-05-18T07:23:22.402Z,66.12
2023-05-18T07:25:26.168Z,65.62
2023-05-18T07:27:28.993Z,65.66
2023-05-18T07:29:33.525Z,65.74
2023-05-18T07:31:39.039Z,65.76
2023-05-18T07:33:41.841Z,65.47
2023-05-18T07:35:44.454Z,65.54
2023-05-18T07:37:51.793Z,65.88
2023-05-18T07:39:54.420Z,65.76
2023-05-18T07:41:57.092Z,65.76
2023-05-18T07:44:02.533Z,65.69
2023-05-18T07:46:06.550Z,65.68
2023-05-18T07:48:09.220Z,65.48
2023-05-18T07:50:12.337Z,65.43
2023-05-18T07:52:15.070Z,66.06
2023-05-18T07:54:17.788Z,65.68
2023-05-18T07:56:20.408Z,65.56
2023-05-18T07:58:22.993Z,65.26
2023-05-18T08:00:25.756Z,65.62
2023-05-18T08:02:31.339Z,65.87
2023-05-18T08:04:35.556Z,66.42
2023-05-18T08:06:38.197Z,65.95
2023-05-18T08:08:40.944Z,66.35
2023-05-18T08:10:43.633Z,66.55
2023-05-18T08:12:46.348Z,66.45
2023-05-18T08:14:48.931Z,66.30
2023-05-18T08:16:51.557Z,66.13
2023-05-18T08:18:55.610Z,65.88
2023-05-18T08:20:58.266Z,66.06
2023-05-18T08:23:00.821Z,66.31
2023-05-18T08:25:04.097Z,66.37
2023-05-18T08:27:08.431Z,66.29
2023-05-18T08:29:11.052Z,66.03
2023-05-18T08:31:13.689Z,65.97
2023-05-18T08:33:19.461Z,65.77
2023-05-18T08:35:23.644Z,66.12
2023-05-18T08:37:29.416Z,65.93
2023-05-18T08:39:32.625Z,65.79
2023-05-18T08:41:40.324Z,65.44
2023-05-18T08:43:46.943Z,65.27
2023-05-18T08:45:53.781Z,65.30
2023-05-18T08:47:58.349Z,65.20
2023-05-18T08:50:03.376Z,65.53
2023-05-18T08:52:09.550Z,65.21
2023-05-18T08:54:16.629Z,64.83
2023-05-18T08:56:20.223Z,64.17
2023-05-18T08:58:28.434Z,64.07
2023-05-18T09:00:31.711Z,64.38
2023-05-18T09:02:35.129Z,64.66
2023-05-18T09:04:39.241Z,64.41
2023-05-18T09:06:42.753Z,64.40
2023-05-18T09:08:47.433Z,64.86
2023-05-18T09:10:51.460Z,64.74
2023-05-18T09:12:56.791Z,64.60
2023-05-18T09:15:01.793Z,64.29
2023-05-18T09:17:04.604Z,64.12
2023-05-18T09:19:07.302Z,63.81
2023-05-18T09:21:10.176Z,63.55
2023-05-18T09:23:13.168Z,63.51
2023-05-18T09:25:18.755Z,63.66
2023-05-18T09:27:22.397Z,59.97
2023-05-18T09:29:25.089Z,60.37
2023-05-18T09:31:28.006Z,60.90
2023-05-18T09:33:35.312Z,60.20
2023-05-18T09:35:38.035Z,59.27
2023-05-18T09:37:43.176Z,59.67
2023-05-18T09:39:59.979Z,58.74
2023-05-18T09:42:05.638Z,58.54
2023-05-18T09:44:10.017Z,58.35
2023-05-18T09:46:14.154Z,58.26
2023-05-18T09:48:17.615Z,57.88
2023-05-18T09:50:20.852Z,58.06
2023-05-18T09:52:23.536Z,57.57
2023-05-18T09:54:26.204Z,56.13
2023-05-18T09:56:28.962Z,56.40
2023-05-18T09:58:34.764Z,56.77
2023-05-18T10:00:43.613Z,56.67
2023-05-18T10:02:48.935Z,55.36
2023-05-18T10:04:52.026Z,55.11
2023-05-18T10:06:54.735Z,55.57
2023-05-18T10:08:59.012Z,55.55
2023-05-18T10:11:02.091Z,56.24
2023-05-18T10:13:05.628Z,55.98
2023-05-18T10:15:15.510Z,55.77
2023-05-18T10:17:18.359Z,55.88
2023-05-18T10:19:21.706Z,55.11
2023-05-18T10:21:28.959Z,55.05
2023-05-18T10:23:33.486Z,55.66
2023-05-18T10:25:38.009Z,55.35
2023-05-18T10:27:42.513Z,55.90
2023-05-18T10:29:46.460Z,55.62
2023-05-18T10:31:52.817Z,55.05
2023-05-18T10:33:56.898Z,55.62
2023-05-18T10:35:59.551Z,55.43
2023-05-18T10:38:03.658Z,54.16
2023-05-18T10:40:08.921Z,52.07
2023-05-18T10:42:12.971Z,51.98
2023-05-18T10:44:16.762Z,51.52
2023-05-18T10:46:21.459Z,50.56
2023-05-18T10:48:26.633Z,49.43
2023-05-18T10:50:31.704Z,51.57
2023-05-18T10:52:34.878Z,51.65
2023-05-18T10:54:37.952Z,52.15
2023-05-18T10:56:44.574Z,50.83
2023-05-18T10:58:48.152Z,50.93
2023-05-18T11:00:53.164Z,50.92
2023-05-18T11:02:56.292Z,50.32
2023-05-18T11:05:00.841Z,51.20
2023-05-18T11:07:03.697Z,50.45
2023-05-18T11:09:07.088Z,50.96
2023-05-18T11:11:09.708Z,51.04
2023-05-18T11:13:12.461Z,50.14
2023-05-18T11:15:15.054Z,49.95
2023-05-18T11:17:22.225Z,50.65
2023-05-18T11:19:26.225Z,50.75
2023-05-18T11:21:53.129Z,50.77
2023-05-18T11:24:14.922Z,50.84
2023-05-18T11:26:17.608Z,50.79
2023-05-18T11:28:23.337Z,49.64
2023-05-18T11:30:29.708Z,49.93
2023-05-18T11:32:34.110Z,50.03
2023-05-18T11:34:45.792Z,50.26
2023-05-18T11:36:56.281Z,49.94
2023-05-18T11:39:06.774Z,49.96
2023-05-18T11:41:10.948Z,50.37
2023-05-18T11:43:21.537Z,51.52
2023-05-18T11:45:24.308Z,50.75
2023-05-18T11:47:32.032Z,50.60
2023-05-18T11:49:38.722Z,50.88
2023-05-18T11:51:58.798Z,50.37
2023-05-18T11:54:01.915Z,49.37
2023-05-18T11:56:06.522Z,50.04
2023-05-18T11:58:10.378Z,50.90
2023-05-18T12:00:15.054Z,50.11
2023-05-18T12:02:22.293Z,49.84
2023-05-18T12:04:25.801Z,49.76
2023-05-18T12:06:29.231Z,47.74
2023-05-18T12:08:32.111Z,48.83
2023-05-18T12:10:36.687Z,48.32
2023-05-18T12:12:40.938Z,48.66
2023-05-18T12:14:45.141Z,48.83
2023-05-18T12:16:48.746Z,49.60
2023-05-18T12:18:51.864Z,49.64
2023-05-18T12:20:54.548Z,49.58
2023-05-18T12:23:01.149Z,49.24
2023-05-18T12:25:03.960Z,49.73
2023-05-18T12:27:08.558Z,49.65
2023-05-18T12:29:15.008Z,50.11
2023-05-18T12:31:17.740Z,49.19
2023-05-18T12:33:22.080Z,49.96
2023-05-18T12:35:25.373Z,50.14
2023-05-18T12:37:34.248Z,49.97
2023-05-18T12:39:52.491Z,49.88
2023-05-18T12:41:55.150Z,49.72
2023-05-18T12:43:58.418Z,49.22
2023-05-18T12:46:03.193Z,50.00
2023-05-18T12:48:06.406Z,50.44
2023-05-18T12:50:09.905Z,50.24
2023-05-18T12:52:14.130Z,49.06
2023-05-18T12:54:16.838Z,49.64
2023-05-18T12:56:20.932Z,48.57
2023-05-18T12:58:23.557Z,48.38
2023-05-18T13:00:26.177Z,48.99
2023-05-18T13:02:32.411Z,47.12
2023-05-18T13:04:36.087Z,48.60
2023-05-18T13:06:39.178Z,48.55
2023-05-18T13:08:42.222Z,48.79
2023-05-18T13:10:45.540Z,48.88
2023-05-18T13:12:50.020Z,48.44
2023-05-18T13:14:54.262Z,46.94
2023-05-18T13:16:57.663Z,47.22
2023-05-18T13:19:06.620Z,48.02
2023-05-18T13:21:09.262Z,48.01
2023-05-18T13:23:14.078Z,48.36
2023-05-18T13:25:16.682Z,47.99
2023-05-18T13:27:19.277Z,49.07
2023-05-18T13:29:21.880Z,49.36
2023-05-18T13:31:25.057Z,49.01
2023-05-18T13:33:27.807Z,49.09
2023-05-18T13:35:32.074Z,49.07
2023-05-18T13:37:35.060Z,49.56
2023-05-18T13:39:37.682Z,49.64
2023-05-18T13:41:40.295Z,49.48
2023-05-18T13:43:43.232Z,47.55
2023-05-18T13:45:45.939Z,48.37
2023-05-18T13:47:50.757Z,47.98
2023-05-18T13:49:53.416Z,48.15
2023-05-18T13:51:59.283Z,48.39
2023-05-18T13:54:02.307Z,48.47
2023-05-18T13:56:05.407Z,49.32
2023-05-18T13:58:08.016Z,49.58
2023-05-18T14:00:13.214Z,49.04
2023-05-18T14:02:16.114Z,48.98
2023-05-18T14:04:18.734Z,48.49
2023-05-18T14:06:23.208Z,47.66
2023-05-18T14:08:27.164Z,48.33
2023-05-18T14:10:29.932Z,48.49
2023-05-18T14:12:33.228Z,47.97
2023-05-18T14:14:36.015Z,48.62
2023-05-18T14:16:38.761Z,49.25
2023-05-18T14:18:41.377Z,48.52
2023-05-18T14:20:44.053Z,47.39
2023-05-18T14:22:46.878Z,47.50
2023-05-18T14:24:50.824Z,47.59
2023-05-18T14:26:53.651Z,47.88
2023-05-18T14:28:56.375Z,48.13
2023-05-18T14:30:59.399Z,48.50
2023-05-18T14:33:02.262Z,48.05
2023-05-18T14:35:06.912Z,48.06
2023-05-18T14:37:09.837Z,47.91
2023-05-18T14:39:12.491Z,48.07
2023-05-18T14:41:16.547Z,49.07
2023-05-18T14:43:19.109Z,49.23
2023-05-18T14:45:21.717Z,48.75
2023-05-18T14:47:24.296Z,48.26
2023-05-18T14:49:26.914Z,48.35
2023-05-18T14:51:29.551Z,48.12
2023-05-18T14:53:32.162Z,48.13
2023-05-18T14:55:34.818Z,48.20
2023-05-18T14:57:38.806Z,48.70
2023-05-18T14:59:43.101Z,49.02
2023-05-18T15:01:45.774Z,49.05
2023-05-18T15:03:51.474Z,49.26
2023-05-18T15:05:54.202Z,49.13
2023-05-18T15:07:56.857Z,49.32
2023-05-18T15:09:59.442Z,49.50
2023-05-18T15:12:02.042Z,49.14
2023-05-18T15:14:06.042Z,48.93
2023-05-18T15:16:08.710Z,49.12
2023-05-18T15:18:11.782Z,48.82
2023-05-18T15:20:14.757Z,49.18
2023-05-18T15:22:17.340Z,49.44
2023-05-18T15:24:19.924Z,48.72
2023-05-18T15:26:22.599Z,49.02
2023-05-18T15:28:25.398Z,48.94
2023-05-18T15:30:30.097Z,49.08
2023-05-18T15:32:32.855Z,49.31
2023-05-18T15:34:35.569Z,49.62
2023-05-18T15:36:38.263Z,49.85
2023-05-18T15:38:41.055Z,50.09
2023-05-18T15:40:46.762Z,50.31
2023-05-18T15:42:50.433Z,50.17
2023-05-18T15:44:53.078Z,50.59
2023-05-18T15:46:57.110Z,50.78
2023-05-18T15:48:59.744Z,50.67
2023-05-18T15:51:02.354Z,50.51
2023-05-18T15:53:04.949Z,50.62
2023-05-18T15:55:08.467Z,51.15
2023-05-18T15:57:11.073Z,51.37
2023-05-18T15:59:13.649Z,51.44
2023-05-18T16:01:16.308Z,51.61
2023-05-18T16:03:20.390Z,51.68
2023-05-18T16:05:22.997Z,51.81
2023-05-18T16:07:25.582Z,52.14
2023-05-18T16:09:28.148Z,52.18
2023-05-18T16:11:30.824Z,52.46
2023-05-18T16:13:33.516Z,52.60
2023-05-18T16:15:36.458Z,52.94
2023-05-18T16:17:39.141Z,53.24
2023-05-18T16:19:43.094Z,53.62
2023-05-18T16:21:45.690Z,53.52
2023-05-18T16:23:48.437Z,53.10
2023-05-18T16:25:51.071Z,52.90
2023-05-18T16:27:53.644Z,53.09
2023-05-18T16:29:56.232Z,53.07
2023-05-18T16:31:58.843Z,53.18
2023-05-18T16:34:01.458Z,53.22
2023-05-18T16:36:06.293Z,53.15
2023-05-18T16:38:08.941Z,52.93
2023-05-18T16:40:12.047Z,53.25
2023-05-18T16:42:14.659Z,53.14
2023-05-18T16:44:17.270Z,53.34
2023-05-18T16:46:20.453Z,53.04
2023-05-18T16:48:23.167Z,52.95
2023-05-18T16:50:27.723Z,52.86
2023-05-18T16:52:31.665Z,52.82
2023-05-18T16:54:34.234Z,52.98
2023-05-18T16:56:36.805Z,53.11
2023-05-18T16:58:39.971Z,53.23
2023-05-18T17:00:42.600Z,52.84
2023-05-18T17:02:45.897Z,53.08
2023-05-18T17:04:50.386Z,53.32
2023-05-18T17:06:53.000Z,53.61
2023-05-18T17:08:58.529Z,53.53
2023-05-18T17:11:01.344Z,53.26
2023-05-18T17:13:04.094Z,52.93
2023-05-18T17:15:07.640Z,52.79
2023-05-18T17:17:10.401Z,51.76
2023-05-18T17:19:13.565Z,51.00
2023-05-18T17:21:16.275Z,51.14
2023-05-18T17:23:18.871Z,51.70
2023-05-18T17:25:22.825Z,51.77
2023-05-18T17:27:25.559Z,52.10
2023-05-18T17:29:28.220Z,52.33
2023-05-18T17:31:30.864Z,52.28
2023-05-18T17:33:33.512Z,52.20
2023-05-18T17:35:36.140Z,52.08
2023-05-18T17:37:38.763Z,51.90
2023-05-18T17:39:41.321Z,52.19
2023-05-18T17:41:45.386Z,52.57
2023-05-18T17:43:48.936Z,52.36
2023-05-18T17:45:51.657Z,52.21
2023-05-18T17:47:54.519Z,52.42
2023-05-18T17:49:57.104Z,52.84
2023-05-18T17:51:59.756Z,53.12
2023-05-18T17:54:02.400Z,53.34
2023-05-18T17:56:05.447Z,53.65
2023-05-18T17:58:09.396Z,53.93
2023-05-18T18:00:13.383Z,54.29
2023-05-18T18:02:16.093Z,54.57
2023-05-18T18:04:18.858Z,54.70
2023-05-18T18:06:22.630Z,54.46
2023-05-18T18:08:25.655Z,54.32
2023-05-18T18:10:28.387Z,54.56
2023-05-18T18:12:31.249Z,54.79
2023-05-18T18:14:35.277Z,54.72
2023-05-18T18:16:37.948Z,54.43
2023-05-18T18:18:40.982Z,54.65
2023-05-18T18:20:44.144Z,54.71
2023-05-18T18:22:47.715Z,54.38
2023-05-18T18:24:50.288Z,54.45
2023-05-18T18:26:53.555Z,54.85
2023-05-18T18:28:56.143Z,55.15
2023-05-18T18:31:00.573Z,55.63
2023-05-18T18:33:03.986Z,55.90
2023-05-18T18:35:07.213Z,55.99
2023-05-18T18:37:09.837Z,55.99
2023-05-18T18:39:13.326Z,55.84
2023-05-18T18:41:17.295Z,55.82
2023-05-18T18:43:19.915Z,55.88
2023-05-18T18:45:22.513Z,55.89
2023-05-18T18:47:26.563Z,55.78
2023-05-18T18:49:29.190Z,55.50
2023-05-18T18:51:32.462Z,55.42
2023-05-18T18:53:35.062Z,55.24
2023-05-18T18:55:37.653Z,54.66
2023-05-18T18:57:40.554Z,54.69
2023-05-18T18:59:43.126Z,54.75
2023-05-18T19:01:46.419Z,54.72
2023-05-18T19:03:52.636Z,54.79
2023-05-18T19:05:55.318Z,54.60
2023-05-18T19:08:01.767Z,54.04
2023-05-18T19:10:05.388Z,53.56
2023-05-18T19:12:09.201Z,53.71
2023-05-18T19:14:11.869Z,53.35
2023-05-18T19:16:17.382Z,53.08
2023-05-18T19:18:20.456Z,52.91
2023-05-18T19:20:24.636Z,52.87
2023-05-18T19:22:27.226Z,52.63
2023-05-18T19:24:29.990Z,52.38
2023-05-18T19:26:32.822Z,52.22
2023-05-18T19:28:35.487Z,52.14
2023-05-18T19:30:38.068Z,52.38
2023-05-18T19:32:41.098Z,52.40
2023-05-18T19:34:43.708Z,52.47
2023-05-18T19:36:47.658Z,52.38
2023-05-18T19:38:52.391Z,52.13
2023-05-18T19:40:55.047Z,51.97
2023-05-18T19:42:59.657Z,52.55
2023-05-18T19:45:02.350Z,52.44
2023-05-18T19:47:05.733Z,51.75
2023-05-18T19:49:10.045Z,52.01
2023-05-18T19:51:12.649Z,52.13
2023-05-18T19:53:16.762Z,52.26
2023-05-18T19:55:21.029Z,52.40
2023-05-18T19:57:23.707Z,52.57
2023-05-18T19:59:26.852Z,52.53
2023-05-18T20:01:29.515Z,52.08
2023-05-18T20:03:32.290Z,52.04
2023-05-18T20:05:34.979Z,52.08
2023-05-18T20:07:37.819Z,52.20
2023-05-18T20:09:41.740Z,52.58
2023-05-18T20:11:44.765Z,52.67
2023-05-18T20:13:48.973Z,52.70
2023-05-18T20:15:51.830Z,52.87
2023-05-18T20:17:54.542Z,52.78
2023-05-18T20:19:57.884Z,52.86
2023-05-18T20:22:00.559Z,53.07
2023-05-18T20:24:05.286Z,53.08
2023-05-18T20:26:09.833Z,52.97
2023-05-18T20:28:13.436Z,52.92
2023-05-18T20:30:16.134Z,53.02
2023-05-18T20:32:18.812Z,52.92
2023-05-18T20:34:21.400Z,53.13
2023-05-18T20:36:25.964Z,53.22
2023-05-18T20:38:28.619Z,53.20
2023-05-18T20:40:31.810Z,52.88
2023-05-18T20:42:41.326Z,53.17
2023-05-18T20:44:45.018Z,53.50
2023-05-18T20:46:47.718Z,53.68
2023-05-18T20:48:52.392Z,53.81
2023-05-18T20:50:54.983Z,53.99
2023-05-18T20:52:57.677Z,54.05
2023-05-18T20:55:00.715Z,54.26
2023-05-18T20:57:06.936Z,54.19
2023-05-18T20:59:12.508Z,53.73
2023-05-18T21:01:18.982Z,53.54
2023-05-18T21:03:22.230Z,53.66
2023-05-18T21:05:24.965Z,53.92
2023-05-18T21:07:30.420Z,53.86
2023-05-18T21:09:38.494Z,53.76
2023-05-18T21:11:41.290Z,53.72
2023-05-18T21:13:43.887Z,53.71
2023-05-18T21:15:48.240Z,53.79
2023-05-18T21:17:50.930Z,54.20
2023-05-18T21:19:54.136Z,54.27
2023-05-18T21:21:56.801Z,54.20
2023-05-18T21:23:59.519Z,54.30
2023-05-18T21:26:03.592Z,54.19
2023-05-18T21:28:06.619Z,54.56
2023-05-18T21:32:30.102Z,54.95
2023-05-18T21:34:33.188Z,55.02
2023-05-18T21:36:36.188Z,55.15
2023-05-18T21:38:40.863Z,54.98
2023-05-18T21:40:43.975Z,54.76
2023-05-18T21:42:47.189Z,54.42
2023-05-18T21:45:07.899Z,54.36
2023-05-18T21:47:11.004Z,54.56
2023-05-18T21:49:15.316Z,54.59
2023-05-18T21:51:18.360Z,54.66
2023-05-18T21:53:21.398Z,54.62
2023-05-18T21:55:25.193Z,54.32
2023-05-18T21:57:27.878Z,54.29
2023-05-18T21:59:32.413Z,54.50
2023-05-18T22:01:35.354Z,54.60
2023-05-18T22:03:39.877Z,54.52
2023-05-18T22:08:24.074Z,54.58
2023-05-18T22:10:27.074Z,54.53
2023-05-18T22:12:30.938Z,54.70
2023-05-18T22:14:33.886Z,54.79
2023-05-18T22:18:55.945Z,55.08
2023-05-18T22:20:59.963Z,55.42
2023-05-18T22:23:05.620Z,55.13
2023-05-18T22:25:09.145Z,54.85
2023-05-18T22:27:12.211Z,54.79
2023-05-18T22:29:16.172Z,54.91
2023-05-18T22:31:19.271Z,55.04
2023-05-18T22:33:21.968Z,55.13
2023-05-18T22:35:24.914Z,55.24
2023-05-18T22:37:30.217Z,55.48
2023-05-18T22:39:33.184Z,55.65
2023-05-18T22:41:35.874Z,55.88
2023-05-18T22:43:38.543Z,56.14
2023-05-18T22:45:42.751Z,56.44
2023-05-18T22:47:46.228Z,56.58
2023-05-18T22:49:49.166Z,56.62
2023-05-18T22:51:53.206Z,56.69
2023-05-18T22:53:57.696Z,56.74
2023-05-18T22:56:00.411Z,56.79
2023-05-18T22:58:03.229Z,56.73
2023-05-18T23:00:07.827Z,56.68
2023-05-18T23:02:10.494Z,56.59
2023-05-18T23:04:18.025Z,56.68
2023-05-18T23:06:24.097Z,56.94
2023-05-18T23:08:27.264Z,56.96
2023-05-18T23:10:37.633Z,57.05
2023-05-18T23:12:41.566Z,57.10
2023-05-18T23:14:45.900Z,57.20
2023-05-18T23:16:50.395Z,57.40
2023-05-18T23:18:53.738Z,57.43
2023-05-18T23:20:58.522Z,57.30
2023-05-18T23:23:01.283Z,57.34
2023-05-18T23:25:08.317Z,57.24
2023-05-18T23:27:12.637Z,57.40
2023-05-18T23:29:15.480Z,57.73
2023-05-18T23:31:18.103Z,57.55
2023-05-18T23:33:21.427Z,57.78
2023-05-18T23:35:25.917Z,58.37
2023-05-18T23:37:29.842Z,58.63
2023-05-18T23:39:34.370Z,58.87
2023-05-18T23:41:39.136Z,58.74
2023-05-18T23:43:46.104Z,58.54
2023-05-18T23:45:54.767Z,58.43
2023-05-18T23:48:03.481Z,58.17
2023-05-18T23:50:09.751Z,57.90
2023-05-18T23:52:14.177Z,57.87
2023-05-18T23:54:17.530Z,57.95
2023-05-18T23:56:22.057Z,57.67
2023-05-18T23:58:28.927Z,57.77
